sensor_id;sensor_type;location;lat;lon;timestamp;pressure;altitude;pressure_sealevel;temperature;humidity
41140;BME280;26881;48.784;9.192;2023-05-03T00:00:38;99395.22;;;12.04;70.72
41140;BME280;26881;48.784;9.192;2023-05-03T00:06:14;99411.94;;;12.01;71.18
41140;BME280;26881;48.784;9.192;2023-05-03T00:11:36;99416.97;;;11.89;71.95
41140;BME280;26881;48.784;9.192;2023-05-03T00:16:58;99418.84;;;11.68;73.01
41140;BME280;26881;48.784;9.192;2023-05-03T00:22:20;99413.69;;;11.49;74.32
41140;BME280;26881;48.784;9.192;2023-05-03T00:27:42;99407.28;;;11.37;74.84
41140;BME280;26881;48.784;9.192;2023-05-03T00:33:03;99412.84;;;11.48;75.21
41140;BME280;26881;48.784;9.192;2023-05-03T00:38:25;99405.44;;;11.22;75.89
41140;BME280;26881;48.784;9.192;2023-05-03T00:43:47;99416.41;;;11.47;74.22
41140;BME280;26881;48.784;9.192;2023-05-03T00:49:09;99406.09;;;11.25;76.33
41140;BME280;26881;48.784;9.192;2023-05-03T00:54:31;99397.06;;;11.13;76.32
41140;BME280;26881;48.784;9.192;2023-05-03T00:59:56;99388.59;;;11.08;77.44
41140;BME280;26881;48.784;9.192;2023-05-03T01:05:19;99390.78;;;11.17;77.19
41140;BME280;26881;48.784;9.192;2023-05-03T01:10:51;99392.13;;;11.44;74.59
41140;BME280;26881;48.784;9.192;2023-05-03T01:29:41;99381.69;;;11.25;75.47
41140;BME280;26881;48.784;9.192;2023-05-03T01:40:37;99372.69;;;11.30;75.05
41140;BME280;26881;48.784;9.192;2023-05-03T01:46:01;99373.84;;;11.25;75.02
41140;BME280;26881;48.784;9.192;2023-05-03T01:51:23;99375.91;;;11.18;75.21
41140;BME280;26881;48.784;9.192;2023-05-03T01:56:44;99371.88;;;10.93;76.88
41140;BME280;26881;48.784;9.192;2023-05-03T02:02:07;99364.34;;;10.49;79.30
41140;BME280;26881;48.784;9.192;2023-05-03T02:07:29;99365.59;;;10.41;80.08
41140;BME280;26881;48.784;9.192;2023-05-03T02:12:50;99377.78;;;10.61;79.47
41140;BME280;26881;48.784;9.192;2023-05-03T02:18:12;99382.69;;;10.67;79.29
41140;BME280;26881;48.784;9.192;2023-05-03T02:23:35;99375.22;;;10.78;77.93
41140;BME280;26881;48.784;9.192;2023-05-03T02:28:57;99375.34;;;10.37;80.60
41140;BME280;26881;48.784;9.192;2023-05-03T02:34:18;99371.19;;;10.12;82.09
41140;BME280;26881;48.784;9.192;2023-05-03T02:39:40;99360.38;;;10.41;80.58
41140;BME280;26881;48.784;9.192;2023-05-03T02:45:02;99370.78;;;10.61;78.70
41140;BME280;26881;48.784;9.192;2023-05-03T02:50:25;99371.47;;;10.25;80.75
41140;BME280;26881;48.784;9.192;2023-05-03T02:55:46;99372.03;;;10.13;81.11
41140;BME280;26881;48.784;9.192;2023-05-03T03:01:09;99369.78;;;10.45;79.68
41140;BME280;26881;48.784;9.192;2023-05-03T03:06:31;99365.72;;;10.19;80.60
41140;BME280;26881;48.784;9.192;2023-05-03T03:11:53;99368.75;;;9.89;82.43
41140;BME280;26881;48.784;9.192;2023-05-03T03:17:15;99365.69;;;9.79;83.13
41140;BME280;26881;48.784;9.192;2023-05-03T03:22:37;99361.56;;;9.94;82.87
41140;BME280;26881;48.784;9.192;2023-05-03T03:27:59;99370.22;;;9.95;82.88
41140;BME280;26881;48.784;9.192;2023-05-03T03:33:21;99364.97;;;10.15;80.90
41140;BME280;26881;48.784;9.192;2023-05-03T03:38:45;99380.28;;;10.04;81.79
41140;BME280;26881;48.784;9.192;2023-05-03T03:44:07;99383.41;;;10.12;81.50
41140;BME280;26881;48.784;9.192;2023-05-03T03:49:29;99381.59;;;9.94;82.36
41140;BME280;26881;48.784;9.192;2023-05-03T03:54:51;99390.94;;;9.99;81.67
41140;BME280;26881;48.784;9.192;2023-05-03T04:00:13;99391.03;;;9.77;83.02
41140;BME280;26881;48.784;9.192;2023-05-03T04:05:35;99391.06;;;9.76;82.99
41140;BME280;26881;48.784;9.192;2023-05-03T04:10:57;99396.66;;;9.88;81.04
41140;BME280;26881;48.784;9.192;2023-05-03T04:16:19;99407.78;;;9.92;81.26
41140;BME280;26881;48.784;9.192;2023-05-03T04:21:40;99410.78;;;10.03;80.96
41140;BME280;26881;48.784;9.192;2023-05-03T04:27:02;99418.50;;;10.06;80.06
41140;BME280;26881;48.784;9.192;2023-05-03T04:32:25;99424.84;;;10.01;81.17
41140;BME280;26881;48.784;9.192;2023-05-03T04:37:46;99427.66;;;9.96;80.82
41140;BME280;26881;48.784;9.192;2023-05-03T04:43:08;99426.53;;;10.02;80.83
41140;BME280;26881;48.784;9.192;2023-05-03T04:48:30;99423.41;;;10.14;80.31
41140;BME280;26881;48.784;9.192;2023-05-03T04:53:52;99431.75;;;10.02;80.50
41140;BME280;26881;48.784;9.192;2023-05-03T04:59:14;99428.91;;;10.08;80.57
41140;BME280;26881;48.784;9.192;2023-05-03T05:04:36;99431.38;;;10.11;80.57
41140;BME280;26881;48.784;9.192;2023-05-03T05:09:58;99433.88;;;10.14;80.48
41140;BME280;26881;48.784;9.192;2023-05-03T05:15:19;99431.13;;;10.17;79.83
41140;BME280;26881;48.784;9.192;2023-05-03T05:20:41;99433.38;;;10.25;80.61
41140;BME280;26881;48.784;9.192;2023-05-03T05:26:03;99440.06;;;10.11;79.93
41140;BME280;26881;48.784;9.192;2023-05-03T05:31:25;99442.66;;;10.11;80.56
41140;BME280;26881;48.784;9.192;2023-05-03T05:36:47;99442.41;;;10.18;80.62
41140;BME280;26881;48.784;9.192;2023-05-03T05:42:09;99440.72;;;10.17;80.21
41140;BME280;26881;48.784;9.192;2023-05-03T05:47:31;99435.16;;;10.24;79.97
41140;BME280;26881;48.784;9.192;2023-05-03T05:52:53;99437.13;;;10.19;80.54
41140;BME280;26881;48.784;9.192;2023-05-03T05:58:14;99445.44;;;10.29;79.54
41140;BME280;26881;48.784;9.192;2023-05-03T06:03:36;99435.00;;;10.27;80.06
41140;BME280;26881;48.784;9.192;2023-05-03T06:08:58;99442.47;;;10.37;79.81
41140;BME280;26881;48.784;9.192;2023-05-03T06:14:25;99433.75;;;10.38;79.63
41140;BME280;26881;48.784;9.192;2023-05-03T06:19:47;99436.06;;;10.63;78.77
41140;BME280;26881;48.784;9.192;2023-05-03T06:25:09;99436.00;;;10.64;78.54
41140;BME280;26881;48.784;9.192;2023-05-03T06:30:38;99436.50;;;10.53;78.51
41140;BME280;26881;48.784;9.192;2023-05-03T06:36:00;99438.38;;;10.70;78.20
41140;BME280;26881;48.784;9.192;2023-05-03T06:41:22;99438.28;;;10.72;78.41
41140;BME280;26881;48.784;9.192;2023-05-03T06:46:44;99434.97;;;10.68;78.90
41140;BME280;26881;48.784;9.192;2023-05-03T06:52:06;99436.84;;;10.84;78.37
41140;BME280;26881;48.784;9.192;2023-05-03T06:57:31;99447.78;;;10.93;78.27
41140;BME280;26881;48.784;9.192;2023-05-03T07:02:53;99434.75;;;10.92;77.49
41140;BME280;26881;48.784;9.192;2023-05-03T07:08:15;99422.72;;;10.88;77.96
41140;BME280;26881;48.784;9.192;2023-05-03T07:13:37;99418.25;;;10.90;79.99
41140;BME280;26881;48.784;9.192;2023-05-03T07:18:58;99409.47;;;11.10;78.30
41140;BME280;26881;48.784;9.192;2023-05-03T07:24:20;99399.31;;;11.21;78.33
41140;BME280;26881;48.784;9.192;2023-05-03T07:29:42;99394.19;;;11.37;77.48
41140;BME280;26881;48.784;9.192;2023-05-03T07:35:05;99393.91;;;11.78;76.81
41140;BME280;26881;48.784;9.192;2023-05-03T07:40:27;99393.66;;;12.00;74.98
41140;BME280;26881;48.784;9.192;2023-05-03T07:45:53;99395.69;;;12.12;74.32
41140;BME280;26881;48.784;9.192;2023-05-03T07:51:15;99394.81;;;12.12;74.65
41140;BME280;26881;48.784;9.192;2023-05-03T07:56:36;99379.84;;;12.14;73.90
41140;BME280;26881;48.784;9.192;2023-05-03T08:01:58;99380.78;;;12.13;74.31
41140;BME280;26881;48.784;9.192;2023-05-03T08:07:22;99386.78;;;12.15;73.34
41140;BME280;26881;48.784;9.192;2023-05-03T08:12:44;99380.91;;;12.27;74.49
41140;BME280;26881;48.784;9.192;2023-05-03T08:18:06;99383.28;;;12.32;73.73
41140;BME280;26881;48.784;9.192;2023-05-03T08:23:28;99387.84;;;12.44;73.07
41140;BME280;26881;48.784;9.192;2023-05-03T08:28:50;99383.97;;;12.51;72.37
41140;BME280;26881;48.784;9.192;2023-05-03T08:34:12;99393.91;;;12.62;72.39
41140;BME280;26881;48.784;9.192;2023-05-03T08:39:33;99384.31;;;12.61;72.69
41140;BME280;26881;48.784;9.192;2023-05-03T08:44:55;99382.56;;;12.61;72.83
41140;BME280;26881;48.784;9.192;2023-05-03T08:50:17;99380.09;;;12.74;72.76
41140;BME280;26881;48.784;9.192;2023-05-03T08:55:40;99374.94;;;12.89;71.76
41140;BME280;26881;48.784;9.192;2023-05-03T09:01:04;99376.03;;;13.00;71.95
41140;BME280;26881;48.784;9.192;2023-05-03T09:06:26;99381.75;;;13.23;71.02
41140;BME280;26881;48.784;9.192;2023-05-03T09:11:48;99385.22;;;13.39;69.71
41140;BME280;26881;48.784;9.192;2023-05-03T09:17:17;99393.63;;;13.46;69.68
41140;BME280;26881;48.784;9.192;2023-05-03T09:22:49;99387.38;;;13.63;69.03
41140;BME280;26881;48.784;9.192;2023-05-03T09:28:13;99371.28;;;13.83;68.87
41140;BME280;26881;48.784;9.192;2023-05-03T09:33:36;99374.38;;;13.90;68.91
41140;BME280;26881;48.784;9.192;2023-05-03T09:38:57;99374.94;;;13.95;68.45
41140;BME280;26881;48.784;9.192;2023-05-03T09:50:02;99361.72;;;13.97;68.58
41140;BME280;26881;48.784;9.192;2023-05-03T09:55:24;99366.78;;;14.00;68.17
41140;BME280;26881;48.784;9.192;2023-05-03T10:00:48;99364.91;;;14.16;67.17
41140;BME280;26881;48.784;9.192;2023-05-03T10:11:47;99359.56;;;14.18;67.25
41140;BME280;26881;48.784;9.192;2023-05-03T10:17:19;99360.88;;;14.25;66.83
41140;BME280;26881;48.784;9.192;2023-05-03T10:28:25;99346.13;;;14.37;65.15
41140;BME280;26881;48.784;9.192;2023-05-03T10:33:47;99348.63;;;14.38;64.05
41140;BME280;26881;48.784;9.192;2023-05-03T10:39:13;99343.38;;;14.52;63.08
41140;BME280;26881;48.784;9.192;2023-05-03T10:44:40;99326.16;;;14.61;62.91
41140;BME280;26881;48.784;9.192;2023-05-03T10:55:32;99332.97;;;14.92;61.18
41140;BME280;26881;48.784;9.192;2023-05-03T11:00:55;99328.63;;;14.91;61.57
41140;BME280;26881;48.784;9.192;2023-05-03T11:06:46;99324.44;;;15.02;60.74
41140;BME280;26881;48.784;9.192;2023-05-03T11:12:12;99313.50;;;15.08;59.76
41140;BME280;26881;48.784;9.192;2023-05-03T11:17:34;99299.63;;;15.18;58.88
41140;BME280;26881;48.784;9.192;2023-05-03T11:22:56;99288.69;;;15.37;59.10
41140;BME280;26881;48.784;9.192;2023-05-03T11:28:18;99291.53;;;15.47;58.48
41140;BME280;26881;48.784;9.192;2023-05-03T11:33:40;99286.47;;;15.57;57.28
41140;BME280;26881;48.784;9.192;2023-05-03T11:39:02;99275.44;;;15.77;54.97
41140;BME280;26881;48.784;9.192;2023-05-03T11:44:26;99283.78;;;15.97;54.55
41140;BME280;26881;48.784;9.192;2023-05-03T11:49:55;99275.84;;;16.22;53.45
41140;BME280;26881;48.784;9.192;2023-05-03T11:55:17;99273.03;;;16.37;54.48
41140;BME280;26881;48.784;9.192;2023-05-03T12:00:42;99268.50;;;16.39;54.05
41140;BME280;26881;48.784;9.192;2023-05-03T12:06:05;99263.56;;;16.21;54.35
41140;BME280;26881;48.784;9.192;2023-05-03T12:11:29;99261.47;;;16.14;54.76
41140;BME280;26881;48.784;9.192;2023-05-03T12:16:56;99247.88;;;16.07;55.39
41140;BME280;26881;48.784;9.192;2023-05-03T12:22:21;99249.81;;;16.29;54.24
41140;BME280;26881;48.784;9.192;2023-05-03T12:27:47;99252.09;;;16.47;50.26
41140;BME280;26881;48.784;9.192;2023-05-03T12:33:29;99254.00;;;16.44;50.97
41140;BME280;26881;48.784;9.192;2023-05-03T12:38:54;99253.44;;;16.52;51.06
41140;BME280;26881;48.784;9.192;2023-05-03T12:44:17;99235.81;;;16.53;49.42
41140;BME280;26881;48.784;9.192;2023-05-03T12:49:44;99230.69;;;16.62;47.79
41140;BME280;26881;48.784;9.192;2023-05-03T12:55:07;99226.34;;;16.61;48.80
41140;BME280;26881;48.784;9.192;2023-05-03T13:00:32;99220.63;;;16.68;49.23
41140;BME280;26881;48.784;9.192;2023-05-03T13:05:57;99220.00;;;16.64;50.47
41140;BME280;26881;48.784;9.192;2023-05-03T13:11:19;99208.22;;;16.57;49.90
41140;BME280;26881;48.784;9.192;2023-05-03T13:16:42;99205.03;;;16.64;48.60
41140;BME280;26881;48.784;9.192;2023-05-03T13:22:06;99201.06;;;16.83;46.00
41140;BME280;26881;48.784;9.192;2023-05-03T13:27:28;99198.28;;;16.84;46.85
41140;BME280;26881;48.784;9.192;2023-05-03T13:32:50;99189.66;;;16.94;48.59
41140;BME280;26881;48.784;9.192;2023-05-03T13:38:12;99181.31;;;17.11;48.25
41140;BME280;26881;48.784;9.192;2023-05-03T13:43:34;99179.13;;;17.05;47.54
41140;BME280;26881;48.784;9.192;2023-05-03T13:48:56;99182.81;;;16.91;47.41
41140;BME280;26881;48.784;9.192;2023-05-03T13:54:18;99174.50;;;16.84;46.25
41140;BME280;26881;48.784;9.192;2023-05-03T13:59:40;99169.72;;;17.01;46.60
41140;BME280;26881;48.784;9.192;2023-05-03T14:05:02;99164.59;;;17.22;45.13
41140;BME280;26881;48.784;9.192;2023-05-03T14:10:24;99157.78;;;17.31;44.81
41140;BME280;26881;48.784;9.192;2023-05-03T14:15:46;99154.06;;;17.44;44.64
41140;BME280;26881;48.784;9.192;2023-05-03T14:21:07;99149.84;;;17.42;43.15
41140;BME280;26881;48.784;9.192;2023-05-03T14:26:29;99144.28;;;17.22;44.16
41140;BME280;26881;48.784;9.192;2023-05-03T14:31:53;99129.03;;;17.26;42.37
41140;BME280;26881;48.784;9.192;2023-05-03T14:37:17;99129.06;;;17.37;41.96
41140;BME280;26881;48.784;9.192;2023-05-03T14:42:39;99121.84;;;17.51;42.04
41140;BME280;26881;48.784;9.192;2023-05-03T14:48:01;99105.72;;;17.54;43.28
41140;BME280;26881;48.784;9.192;2023-05-03T14:53:24;99099.25;;;17.58;42.49
41140;BME280;26881;48.784;9.192;2023-05-03T14:58:45;99096.72;;;17.56;42.56
41140;BME280;26881;48.784;9.192;2023-05-03T15:04:08;99101.38;;;17.53;42.00
41140;BME280;26881;48.784;9.192;2023-05-03T15:09:33;99105.72;;;17.54;42.54
41140;BME280;26881;48.784;9.192;2023-05-03T15:14:55;99102.09;;;17.55;42.91
41140;BME280;26881;48.784;9.192;2023-05-03T15:20:17;99110.03;;;17.55;41.62
41140;BME280;26881;48.784;9.192;2023-05-03T15:25:39;99104.41;;;17.48;41.03
41140;BME280;26881;48.784;9.192;2023-05-03T15:31:00;99099.84;;;17.50;40.22
41140;BME280;26881;48.784;9.192;2023-05-03T15:36:22;99097.91;;;17.52;40.68
41140;BME280;26881;48.784;9.192;2023-05-03T15:41:44;99100.44;;;17.54;40.74
41140;BME280;26881;48.784;9.192;2023-05-03T15:47:06;99092.63;;;17.52;39.73
41140;BME280;26881;48.784;9.192;2023-05-03T15:52:28;99085.03;;;17.59;39.04
41140;BME280;26881;48.784;9.192;2023-05-03T15:57:50;99083.75;;;17.53;38.43
41140;BME280;26881;48.784;9.192;2023-05-03T16:03:13;99085.41;;;17.54;37.82
41140;BME280;26881;48.784;9.192;2023-05-03T16:08:35;99079.28;;;17.54;38.25
41140;BME280;26881;48.784;9.192;2023-05-03T16:13:57;99083.84;;;17.52;38.87
41140;BME280;26881;48.784;9.192;2023-05-03T16:19:19;99079.03;;;17.45;40.20
41140;BME280;26881;48.784;9.192;2023-05-03T16:24:41;99080.28;;;17.41;40.25
41140;BME280;26881;48.784;9.192;2023-05-03T16:30:04;99078.31;;;17.43;39.43
41140;BME280;26881;48.784;9.192;2023-05-03T16:35:26;99082.66;;;17.44;39.02
41140;BME280;26881;48.784;9.192;2023-05-03T16:40:48;99071.47;;;17.41;39.47
41140;BME280;26881;48.784;9.192;2023-05-03T16:46:10;99063.69;;;17.39;39.68
41140;BME280;26881;48.784;9.192;2023-05-03T16:51:32;99067.16;;;17.40;39.76
41140;BME280;26881;48.784;9.192;2023-05-03T16:56:54;99064.63;;;17.38;39.94
41140;BME280;26881;48.784;9.192;2023-05-03T17:02:16;99056.94;;;17.35;39.53
41140;BME280;26881;48.784;9.192;2023-05-03T17:07:38;99057.78;;;17.36;39.12
41140;BME280;26881;48.784;9.192;2023-05-03T17:13:03;99057.06;;;17.34;38.89
41140;BME280;26881;48.784;9.192;2023-05-03T17:18:26;99061.75;;;17.30;40.41
41140;BME280;26881;48.784;9.192;2023-05-03T17:23:48;99053.22;;;17.26;40.38
41140;BME280;26881;48.784;9.192;2023-05-03T17:29:10;99059.59;;;17.24;40.07
41140;BME280;26881;48.784;9.192;2023-05-03T17:34:32;99055.28;;;17.23;40.49
41140;BME280;26881;48.784;9.192;2023-05-03T17:39:53;99056.59;;;17.17;41.30
41140;BME280;26881;48.784;9.192;2023-05-03T17:45:15;99060.31;;;17.15;42.02
41140;BME280;26881;48.784;9.192;2023-05-03T17:50:37;99054.66;;;17.08;42.16
41140;BME280;26881;48.784;9.192;2023-05-03T17:55:59;99059.22;;;17.06;41.99
41140;BME280;26881;48.784;9.192;2023-05-03T18:01:21;99069.22;;;17.02;42.17
41140;BME280;26881;48.784;9.192;2023-05-03T18:06:43;99073.88;;;16.99;42.50
41140;BME280;26881;48.784;9.192;2023-05-03T18:12:05;99085.78;;;16.93;43.29
41140;BME280;26881;48.784;9.192;2023-05-03T18:17:28;99072.09;;;16.88;43.38
41140;BME280;26881;48.784;9.192;2023-05-03T18:22:50;99080.19;;;16.74;44.38
41140;BME280;26881;48.784;9.192;2023-05-03T18:28:11;99090.25;;;16.57;46.31
41140;BME280;26881;48.784;9.192;2023-05-03T18:33:33;99086.84;;;16.44;46.83
41140;BME280;26881;48.784;9.192;2023-05-03T18:38:55;99103.59;;;16.32;47.42
41140;BME280;26881;48.784;9.192;2023-05-03T18:44:17;99109.44;;;16.24;47.55
41140;BME280;26881;48.784;9.192;2023-05-03T18:49:38;99112.47;;;16.07;48.90
41140;BME280;26881;48.784;9.192;2023-05-03T18:55:01;99117.78;;;15.94;49.77
41140;BME280;26881;48.784;9.192;2023-05-03T19:00:23;99119.50;;;15.82;50.81
41140;BME280;26881;48.784;9.192;2023-05-03T19:05:45;99114.81;;;15.74;51.01
41140;BME280;26881;48.784;9.192;2023-05-03T19:11:10;99126.81;;;15.66;50.37
41140;BME280;26881;48.784;9.192;2023-05-03T19:16:33;99123.75;;;15.59;50.40
41140;BME280;26881;48.784;9.192;2023-05-03T19:21:55;99122.75;;;15.49;51.83
41140;BME280;26881;48.784;9.192;2023-05-03T19:27:17;99128.00;;;15.36;53.18
41140;BME280;26881;48.784;9.192;2023-05-03T19:32:39;99123.50;;;15.25;53.08
41140;BME280;26881;48.784;9.192;2023-05-03T19:38:00;99123.00;;;15.20;53.28
41140;BME280;26881;48.784;9.192;2023-05-03T19:43:22;99126.78;;;15.16;52.39
41140;BME280;26881;48.784;9.192;2023-05-03T19:48:44;99133.00;;;15.02;54.05
41140;BME280;26881;48.784;9.192;2023-05-03T19:54:06;99125.94;;;14.90;53.81
41140;BME280;26881;48.784;9.192;2023-05-03T19:59:27;99134.69;;;14.90;53.31
41140;BME280;26881;48.784;9.192;2023-05-03T20:04:49;99145.53;;;14.86;53.49
41140;BME280;26881;48.784;9.192;2023-05-03T20:10:11;99153.19;;;14.76;53.89
41140;BME280;26881;48.784;9.192;2023-05-03T20:15:34;99151.19;;;14.67;54.56
41140;BME280;26881;48.784;9.192;2023-05-03T20:20:56;99157.81;;;14.60;54.60
41140;BME280;26881;48.784;9.192;2023-05-03T20:26:18;99161.66;;;14.54;55.01
41140;BME280;26881;48.784;9.192;2023-05-03T20:31:40;99160.47;;;14.45;55.14
41140;BME280;26881;48.784;9.192;2023-05-03T20:37:02;99152.22;;;14.37;55.57
41140;BME280;26881;48.784;9.192;2023-05-03T20:42:24;99155.25;;;14.31;56.09
41140;BME280;26881;48.784;9.192;2023-05-03T20:47:46;99150.09;;;14.29;56.02
41140;BME280;26881;48.784;9.192;2023-05-03T20:53:08;99157.75;;;14.20;56.14
41140;BME280;26881;48.784;9.192;2023-05-03T20:58:29;99152.50;;;14.20;56.13
41140;BME280;26881;48.784;9.192;2023-05-03T21:03:51;99154.00;;;14.09;56.64
41140;BME280;26881;48.784;9.192;2023-05-03T21:09:13;99150.63;;;14.07;56.52
41140;BME280;26881;48.784;9.192;2023-05-03T21:14:35;99151.78;;;14.03;56.55
41140;BME280;26881;48.784;9.192;2023-05-03T21:19:57;99154.28;;;14.05;56.81
41140;BME280;26881;48.784;9.192;2023-05-03T21:25:19;99150.00;;;14.04;56.71
41140;BME280;26881;48.784;9.192;2023-05-03T21:30:40;99146.63;;;14.02;56.90
41140;BME280;26881;48.784;9.192;2023-05-03T21:36:02;99141.19;;;13.90;56.86
41140;BME280;26881;48.784;9.192;2023-05-03T21:41:25;99141.09;;;13.92;57.11
41140;BME280;26881;48.784;9.192;2023-05-03T21:46:47;99129.00;;;13.89;57.04
41140;BME280;26881;48.784;9.192;2023-05-03T21:52:09;99137.00;;;13.74;57.60
41140;BME280;26881;48.784;9.192;2023-05-03T21:57:31;99134.00;;;13.65;57.73
41140;BME280;26881;48.784;9.192;2023-05-03T22:02:53;99125.19;;;13.66;58.71
41140;BME280;26881;48.784;9.192;2023-05-03T22:08:15;99127.72;;;13.54;58.63
41140;BME280;26881;48.784;9.192;2023-05-03T22:13:39;99131.31;;;13.53;58.51
41140;BME280;26881;48.784;9.192;2023-05-03T22:19:19;99127.47;;;13.44;58.14
41140;BME280;26881;48.784;9.192;2023-05-03T22:24:41;99113.56;;;13.42;58.40
41140;BME280;26881;48.784;9.192;2023-05-03T22:30:03;99113.22;;;13.34;58.98
41140;BME280;26881;48.784;9.192;2023-05-03T22:35:26;99120.44;;;13.30;58.66
41140;BME280;26881;48.784;9.192;2023-05-03T22:40:47;99113.09;;;13.35;58.61
41140;BME280;26881;48.784;9.192;2023-05-03T22:46:09;99109.25;;;13.26;58.85
41140;BME280;26881;48.784;9.192;2023-05-03T22:51:31;99110.94;;;13.13;58.93
41140;BME280;26881;48.784;9.192;2023-05-03T22:56:53;99113.34;;;13.16;59.01
41140;BME280;26881;48.784;9.192;2023-05-03T23:02:15;99107.75;;;13.08;59.25
41140;BME280;26881;48.784;9.192;2023-05-03T23:07:38;99111.47;;;12.90;60.50
41140;BME280;26881;48.784;9.192;2023-05-03T23:13:00;99113.16;;;12.91;60.72
41140;BME280;26881;48.784;9.192;2023-05-03T23:18:22;99105.66;;;12.84;60.80
41140;BME280;26881;48.784;9.192;2023-05-03T23:23:44;99096.09;;;12.83;61.15
41140;BME280;26881;48.784;9.192;2023-05-03T23:29:05;99093.25;;;12.72;61.74
41140;BME280;26881;48.784;9.192;2023-05-03T23:34:29;99098.16;;;12.78;62.49
41140;BME280;26881;48.784;9.192;2023-05-03T23:39:51;99096.25;;;12.66;63.35
41140;BME280;26881;48.784;9.192;2023-05-03T23:45:12;99092.41;;;12.57;63.71
41140;BME280;26881;48.784;9.192;2023-05-03T23:50:34;99099.59;;;12.54;63.37
41140;BME280;26881;48.784;9.192;2023-05-03T23:55:56;99094.50;;;12.36;64.13
